Дата Пункты Температура Давл., мм. Влажн., % Ветер Погодные явления
Воздуха Воды Направл. Скорость
28.02.19 08:00 Одесса 11.0 3.0 744 47 З 2 20 ГОДИН
28.02.19 05:00 Одесса 13.0 3.0 745 43 З 4 17 ГОДИН
28.02.19 02:00 Одесса 13.0 3.0 747 44 З 3 14 ГОДИН
28.02.19 11:00 Одесса 7.0 3.0 751 64 З 4 11 ГОДИН
28.02.19 08:00 Одесса 2.0 3.0 754 79 З 3 08 ГОДИН
28.02.19 05:00 Одесса 1.0 3.0 755 82 З 2 05 ГОДИН
28.02.19 02:00 Одесса 1.0 3.0 757 80 З 1 02 ГОДИНИ
27.02.19 11:00 Одесса 2.0 3.0 758 76 Пн-З 1 23 ГОДИНИ
27.02.19 08:00 Одесса 3.0 3.0 759 72 Пн-З 2 20 ГОДИН
27.02.19 05:00 Одесса 3.0 3.0 758 75 Пн 2 17 ГОДИН
27.02.19 02:00 Одесса 4.0 3.0 758 72 Пн 4 14 ГОДИН
27.02.19 11:00 Одесса 4.0 3.0 758 78 Пн 3 11 ГОДИН
27.02.19 08:00 Одесса 2.0 3.0 757 83 Пн 3 08 ГОДИН
27.02.19 05:00 Одесса 2.0 3.0 756 84 Пн 4 05 ГОДИН
27.02.19 02:00 Одесса 2.0 3.0 756 85 Пн 3 02 ГОДИНИ
26.02.19 11:00 Одесса 2.0 3.0 755 86 Пн 3 23 ГОДИНИ
26.02.19 08:00 Одесса 3.0 3.0 754 85 Пн-З 2 20 ГОДИН
26.02.19 05:00 Одесса 4.0 3.0 753 75 Пн-З 3 17 ГОДИН
26.02.19 02:00 Одесса 4.0 3.0 754 81 Пн-З 2 14 ГОДИН
26.02.19 11:00 Одесса 3.0 2.0 756 81 Пн-З 2 11 ГОДИН
Количество строк
1 2 3 4 5 6 7 8 9 10
Page 10 of 472